createdAt,value
2022-10-28T00:00:03.932Z,20.10
2022-10-28T00:02:53.681Z,20.30
2022-10-28T00:05:41.647Z,20.30
2022-10-28T00:08:30.101Z,19.23
2022-10-28T00:11:22.480Z,18.00
2022-10-28T00:14:11.143Z,17.27
2022-10-28T00:16:58.758Z,18.27
2022-10-28T00:19:50.400Z,18.77
2022-10-28T00:22:37.829Z,17.85
2022-10-28T00:25:25.727Z,18.10
2022-10-28T00:28:13.030Z,17.88
2022-10-28T00:31:06.720Z,16.38
2022-10-28T00:33:55.224Z,17.70
2022-10-28T00:36:46.349Z,17.92
2022-10-28T00:39:34.178Z,18.55
2022-10-28T00:42:23.738Z,18.33
2022-10-28T00:45:12.341Z,18.88
2022-10-28T00:48:02.524Z,18.55
2022-10-28T00:50:52.893Z,17.20
2022-10-28T00:53:43.172Z,17.60
2022-10-28T00:56:34.926Z,19.45
2022-10-28T00:59:28.153Z,20.58
2022-10-28T01:02:15.990Z,20.23
2022-10-28T01:05:04.476Z,22.08
2022-10-28T01:07:55.227Z,21.33
2022-10-28T01:11:19.021Z,21.60
2022-10-28T01:14:24.648Z,20.90
2022-10-28T01:17:48.015Z,19.02
2022-10-28T01:21:27.613Z,18.85
2022-10-28T01:24:31.795Z,18.55
2022-10-28T01:28:13.543Z,20.08
2022-10-28T01:31:20.699Z,19.17
2022-10-28T01:34:19.050Z,18.90
2022-10-28T01:37:15.576Z,18.75
2022-10-28T01:40:12.399Z,20.38
2022-10-28T01:43:12.225Z,18.88
2022-10-28T01:46:05.966Z,19.83
2022-10-28T01:48:58.806Z,20.83
2022-10-28T01:51:49.819Z,20.67
2022-10-28T01:54:40.597Z,20.60
2022-10-28T01:57:32.294Z,21.85
2022-10-28T02:00:20.459Z,21.23
2022-10-28T02:03:10.124Z,21.10
2022-10-28T02:06:02.592Z,20.05
2022-10-28T02:09:07.595Z,19.30
2022-10-28T02:12:20.012Z,19.02
2022-10-28T02:15:40.974Z,19.30
2022-10-28T02:18:44.450Z,18.33
2022-10-28T02:21:48.927Z,19.70
2022-10-28T02:24:48.707Z,19.53
2022-10-28T02:27:44.643Z,19.50
2022-10-28T02:30:38.469Z,18.70
2022-10-28T02:33:31.411Z,18.48
2022-10-28T02:36:20.641Z,18.45
2022-10-28T02:39:12.367Z,17.10
2022-10-28T02:42:08.195Z,16.65
2022-10-28T02:45:02.732Z,17.05
2022-10-28T02:47:55.752Z,18.25
2022-10-28T02:50:48.545Z,16.63
2022-10-28T02:53:51.713Z,16.17
2022-10-28T02:56:49.820Z,17.05
2022-10-28T02:59:37.625Z,16.05
2022-10-28T03:02:25.667Z,16.92
2022-10-28T03:05:14.380Z,16.50
2022-10-28T03:08:01.727Z,16.65
2022-10-28T03:10:49.225Z,16.63
2022-10-28T03:13:37.819Z,15.98
2022-10-28T03:16:26.722Z,14.60
2022-10-28T03:19:14.324Z,16.73
2022-10-28T03:22:01.856Z,15.95
2022-10-28T03:24:49.182Z,15.95
2022-10-28T03:27:36.738Z,16.60
2022-10-28T03:30:25.705Z,16.13
2022-10-28T03:33:13.448Z,15.82
2022-10-28T03:36:01.011Z,15.85
2022-10-28T03:38:48.328Z,16.55
2022-10-28T03:41:35.739Z,15.45
2022-10-28T03:44:23.028Z,15.40
2022-10-28T03:47:11.719Z,16.20
2022-10-28T03:49:59.293Z,16.85
2022-10-28T03:52:46.635Z,15.88
2022-10-28T03:55:34.175Z,16.23
2022-10-28T03:58:21.733Z,15.75
2022-10-28T04:01:09.912Z,16.75
2022-10-28T04:04:00.773Z,15.50
2022-10-28T04:06:48.171Z,14.70
2022-10-28T04:09:35.640Z,14.75
2022-10-28T04:12:23.154Z,14.50
2022-10-28T04:15:11.097Z,14.40
2022-10-28T04:17:58.791Z,13.98
2022-10-28T04:20:48.840Z,13.90
2022-10-28T04:23:36.358Z,15.02
2022-10-28T04:26:24.045Z,13.50
2022-10-28T04:29:11.648Z,14.52
2022-10-28T04:31:59.568Z,14.13
2022-10-28T04:34:46.823Z,13.63
2022-10-28T04:37:35.888Z,15.50
2022-10-28T04:40:23.617Z,14.52
2022-10-28T04:43:14.411Z,15.15
2022-10-28T04:46:06.128Z,15.52
2022-10-28T04:48:53.639Z,16.58
2022-10-28T04:51:41.079Z,17.05
2022-10-28T04:54:29.799Z,16.02
2022-10-28T04:57:17.329Z,16.60
2022-10-28T05:00:06.026Z,16.83
2022-10-28T05:02:54.254Z,17.38
2022-10-28T05:05:42.098Z,15.68
2022-10-28T05:08:30.153Z,15.55
2022-10-28T05:11:18.851Z,14.82
2022-10-28T05:14:06.713Z,16.08
2022-10-28T05:16:53.986Z,15.20
2022-10-28T05:19:42.312Z,15.20
2022-10-28T05:22:29.730Z,16.55
2022-10-28T05:25:17.865Z,15.40
2022-10-28T05:28:07.118Z,16.75
2022-10-28T05:30:54.857Z,16.52
2022-10-28T05:33:42.138Z,16.38
2022-10-28T05:36:29.612Z,15.18
2022-10-28T05:39:17.011Z,15.07
2022-10-28T05:42:07.972Z,13.93
2022-10-28T05:44:56.794Z,14.90
2022-10-28T05:47:45.474Z,14.65
2022-10-28T05:50:32.833Z,15.85
2022-10-28T05:53:20.267Z,17.20
2022-10-28T05:56:08.390Z,17.63
2022-10-28T05:58:55.782Z,17.20
2022-10-28T06:01:44.577Z,16.63
2022-10-28T06:04:33.454Z,16.95
2022-10-28T06:07:20.967Z,16.88
2022-10-28T06:10:11.700Z,16.02
2022-10-28T06:12:59.149Z,16.73
2022-10-28T06:15:51.903Z,17.38
2022-10-28T06:18:40.709Z,16.45
2022-10-28T06:21:28.546Z,16.65
2022-10-28T06:24:16.012Z,17.85
2022-10-28T06:27:03.900Z,16.80
2022-10-28T06:29:51.203Z,15.75
2022-10-28T06:32:39.059Z,17.58
2022-10-28T06:35:28.118Z,16.35
2022-10-28T06:38:15.702Z,17.08
2022-10-28T06:41:03.805Z,16.30
2022-10-28T06:43:51.407Z,15.65
2022-10-28T06:46:40.423Z,16.55
2022-10-28T06:49:28.803Z,16.48
2022-10-28T06:52:17.534Z,16.50
2022-10-28T06:55:05.673Z,16.40
2022-10-28T06:57:53.371Z,16.60
2022-10-28T07:00:43.841Z,16.85
2022-10-28T07:03:33.170Z,15.75
2022-10-28T07:06:20.515Z,13.98
2022-10-28T07:09:12.136Z,15.05
2022-10-28T07:12:04.930Z,13.57
2022-10-28T07:14:53.253Z,12.80
2022-10-28T07:17:41.958Z,13.77
2022-10-28T07:20:33.073Z,12.50
2022-10-28T07:23:21.126Z,13.57
2022-10-28T07:26:10.049Z,13.27
2022-10-28T07:28:58.049Z,12.30
2022-10-28T07:31:45.858Z,12.82
2022-10-28T07:34:35.631Z,13.38
2022-10-28T07:37:23.452Z,14.55
2022-10-28T07:40:11.879Z,12.98
2022-10-28T07:43:01.705Z,13.98
2022-10-28T07:45:49.438Z,14.18
2022-10-28T07:48:38.369Z,12.57
2022-10-28T07:51:26.189Z,10.90
2022-10-28T07:54:13.882Z,11.70
2022-10-28T07:57:01.691Z,10.93
2022-10-28T07:59:50.576Z,9.85
2022-10-28T08:02:38.695Z,9.93
2022-10-28T08:05:26.079Z,8.75
2022-10-28T08:08:13.716Z,8.82
2022-10-28T08:11:09.381Z,9.65
2022-10-28T08:14:00.260Z,9.75
2022-10-28T08:16:49.124Z,9.20
2022-10-28T08:19:36.755Z,9.98
2022-10-28T08:22:24.773Z,9.13
2022-10-28T08:25:15.419Z,9.48
2022-10-28T08:28:03.160Z,8.52
2022-10-28T08:31:04.090Z,8.75
2022-10-28T08:33:57.019Z,9.50
2022-10-28T08:36:44.673Z,8.93
2022-10-28T08:39:32.052Z,8.23
2022-10-28T08:42:37.379Z,7.93
2022-10-28T08:45:37.865Z,6.60
2022-10-28T08:48:32.781Z,6.57
2022-10-28T08:54:19.934Z,6.07
2022-10-28T08:57:20.044Z,5.43
2022-10-28T09:00:18.230Z,5.07
2022-10-28T09:03:20.633Z,4.70
2022-10-28T09:06:10.436Z,4.28
2022-10-28T09:08:59.253Z,4.25
2022-10-28T09:12:02.848Z,4.32
2022-10-28T09:15:14.971Z,4.30
2022-10-28T09:18:15.834Z,4.50
2022-10-28T09:21:14.529Z,4.50
2022-10-28T09:24:17.830Z,3.75
2022-10-28T09:27:17.353Z,4.00
2022-10-28T09:30:32.242Z,4.13
2022-10-28T09:33:56.659Z,3.75
2022-10-28T09:36:48.911Z,3.72
2022-10-28T09:39:44.450Z,4.07
2022-10-28T09:42:41.853Z,3.88
2022-10-28T09:45:33.142Z,3.13
2022-10-28T09:48:25.258Z,3.00
2022-10-28T09:51:30.350Z,2.55
2022-10-28T09:54:18.684Z,2.97
2022-10-28T09:57:08.101Z,2.30
2022-10-28T09:59:55.881Z,2.40
2022-10-28T10:02:43.775Z,2.15
2022-10-28T10:05:32.533Z,2.25
2022-10-28T10:08:22.776Z,2.08
2022-10-28T10:11:25.659Z,2.30
2022-10-28T10:14:20.631Z,2.45
2022-10-28T10:17:15.833Z,1.90
2022-10-28T10:20:09.118Z,2.15
2022-10-28T10:22:57.313Z,2.37
2022-10-28T10:25:46.973Z,2.60
2022-10-28T10:28:38.417Z,2.08
2022-10-28T10:31:31.380Z,2.47
2022-10-28T10:34:26.852Z,1.75
2022-10-28T10:37:22.310Z,1.83
2022-10-28T10:40:22.794Z,2.40
2022-10-28T10:43:24.597Z,2.70
2022-10-28T10:46:18.060Z,3.70
2022-10-28T10:49:16.119Z,2.75
2022-10-28T10:52:08.232Z,2.80
2022-10-28T10:55:03.708Z,2.88
2022-10-28T10:57:53.183Z,2.63
2022-10-28T11:00:50.146Z,3.50
2022-10-28T11:03:41.457Z,2.40
2022-10-28T11:06:33.593Z,2.83
2022-10-28T11:09:30.094Z,2.88
2022-10-28T11:12:26.553Z,3.13
2022-10-28T11:15:26.061Z,3.22
2022-10-28T11:18:21.109Z,2.85
2022-10-28T11:24:37.356Z,2.67
2022-10-28T11:27:40.022Z,2.88
2022-10-28T11:30:40.070Z,2.83
2022-10-28T11:33:39.139Z,2.83
2022-10-28T11:36:36.444Z,3.33
2022-10-28T11:39:34.959Z,3.10
2022-10-28T11:42:33.373Z,3.20
2022-10-28T11:45:32.235Z,2.58
2022-10-28T11:48:40.701Z,2.60
2022-10-28T11:51:43.298Z,2.65
2022-10-28T11:54:53.775Z,2.90
2022-10-28T11:57:59.984Z,2.30
2022-10-28T12:01:10.712Z,2.72
2022-10-28T12:04:13.776Z,2.53
2022-10-28T12:08:04.088Z,2.47
2022-10-28T12:11:12.584Z,2.65
2022-10-28T12:14:11.773Z,2.75
2022-10-28T12:17:06.689Z,2.35
2022-10-28T12:20:00.990Z,2.08
2022-10-28T12:22:52.987Z,2.38
2022-10-28T12:25:45.108Z,2.03
2022-10-28T12:28:43.330Z,2.13
2022-10-28T12:31:35.859Z,1.88
2022-10-28T12:34:31.239Z,2.05
2022-10-28T12:37:23.199Z,2.47
2022-10-28T12:40:20.839Z,2.28
2022-10-28T12:43:16.883Z,2.00
2022-10-28T12:46:07.316Z,1.90
2022-10-28T12:48:59.846Z,2.13
2022-10-28T12:51:47.960Z,2.70
2022-10-28T12:54:52.775Z,2.40
2022-10-28T13:00:36.540Z,2.80
2022-10-28T13:03:25.378Z,2.65
2022-10-28T13:06:47.073Z,2.33
2022-10-28T13:09:54.303Z,2.70
2022-10-28T13:13:18.163Z,2.38
2022-10-28T13:16:30.780Z,2.17
2022-10-28T13:19:43.088Z,2.40
2022-10-28T13:22:57.811Z,2.35
2022-10-28T13:26:07.344Z,2.90
2022-10-28T13:28:58.723Z,2.80
2022-10-28T13:31:47.878Z,2.40
2022-10-28T13:34:41.931Z,2.40
2022-10-28T13:37:36.912Z,2.53
2022-10-28T13:41:10.540Z,1.90
2022-10-28T13:44:15.271Z,2.13
2022-10-28T13:47:31.750Z,1.80
2022-10-28T13:50:44.527Z,2.42
2022-10-28T13:53:41.732Z,2.25
2022-10-28T13:56:49.216Z,2.33
2022-10-28T13:59:54.699Z,1.92
2022-10-28T14:02:47.828Z,2.58
2022-10-28T14:06:00.803Z,2.92
2022-10-28T14:08:48.310Z,1.90
2022-10-28T14:11:35.722Z,2.20
2022-10-28T14:14:23.020Z,2.35
2022-10-28T14:17:23.184Z,2.42
2022-10-28T14:20:34.916Z,2.13
2022-10-28T14:24:11.598Z,2.50
2022-10-28T14:27:42.804Z,2.40
2022-10-28T14:30:30.326Z,2.08
2022-10-28T14:33:23.344Z,2.38
2022-10-28T14:36:30.699Z,2.00
2022-10-28T14:39:37.529Z,2.38
2022-10-28T14:42:43.382Z,2.47
2022-10-28T14:45:42.015Z,2.25
2022-10-28T14:48:49.754Z,2.42
2022-10-28T14:51:42.488Z,2.40
2022-10-28T14:54:40.946Z,2.33
2022-10-28T14:57:33.689Z,2.70
2022-10-28T15:00:26.013Z,2.95
2022-10-28T15:03:14.262Z,3.65
2022-10-28T15:06:18.747Z,3.13
2022-10-28T15:09:18.317Z,3.60
2022-10-28T15:12:10.338Z,3.42
2022-10-28T15:14:58.859Z,2.90
2022-10-28T15:17:46.336Z,3.95
2022-10-28T15:20:36.535Z,3.70
2022-10-28T15:23:25.343Z,3.20
2022-10-28T15:26:14.660Z,4.00
2022-10-28T15:29:04.060Z,4.07
2022-10-28T15:32:08.679Z,3.75
2022-10-28T15:34:59.521Z,3.65
2022-10-28T15:37:47.238Z,3.78
2022-10-28T15:40:37.936Z,3.67
2022-10-28T15:43:28.484Z,4.90
2022-10-28T15:46:18.637Z,4.72
2022-10-28T15:49:06.105Z,4.30
2022-10-28T15:52:34.291Z,4.28
2022-10-28T15:56:06.599Z,28.75
2022-10-28T15:59:10.206Z,22.33
2022-10-28T16:04:47.246Z,13.63
2022-10-28T16:07:34.707Z,13.93
2022-10-28T16:10:22.098Z,10.23
2022-10-28T16:13:18.453Z,13.75
2022-10-28T16:16:09.495Z,8.77
2022-10-28T16:19:07.826Z,7.18
2022-10-28T16:21:55.623Z,8.68
2022-10-28T16:24:43.227Z,6.55
2022-10-28T16:27:33.559Z,7.13
2022-10-28T16:33:13.494Z,6.07
2022-10-28T16:36:03.867Z,6.45
2022-10-28T16:38:51.596Z,5.30
2022-10-28T16:41:40.754Z,6.20
2022-10-28T16:44:29.731Z,7.07
2022-10-28T16:47:19.328Z,6.30
2022-10-28T16:50:07.709Z,7.07
2022-10-28T16:52:56.679Z,6.60
2022-10-28T16:55:44.099Z,5.93
2022-10-28T16:58:32.311Z,6.53
2022-10-28T17:01:24.152Z,6.22
2022-10-28T17:04:11.745Z,6.40
2022-10-28T17:06:59.039Z,6.15
2022-10-28T17:09:47.736Z,5.85
2022-10-28T17:12:35.313Z,6.45
2022-10-28T17:15:22.876Z,8.75
2022-10-28T17:18:12.318Z,8.48
2022-10-28T17:21:03.526Z,7.38
2022-10-28T17:23:51.273Z,7.72
2022-10-28T17:26:40.226Z,6.30
2022-10-28T17:29:29.854Z,6.63
2022-10-28T17:32:17.260Z,6.88
2022-10-28T17:35:05.072Z,6.60
2022-10-28T17:37:53.143Z,5.93
2022-10-28T17:40:40.629Z,6.80
2022-10-28T17:43:30.011Z,7.35
2022-10-28T17:46:17.384Z,7.53
2022-10-28T17:49:08.722Z,7.75
2022-10-28T17:51:56.250Z,7.18
2022-10-28T17:54:43.625Z,7.05
2022-10-28T17:57:37.602Z,7.60
2022-10-28T18:00:36.938Z,6.93
2022-10-28T18:03:24.157Z,7.50
2022-10-28T18:06:15.729Z,6.97
2022-10-28T18:09:03.792Z,7.30
2022-10-28T18:11:52.942Z,6.65
2022-10-28T18:14:40.999Z,7.07
2022-10-28T18:17:30.099Z,6.93
2022-10-28T18:20:17.714Z,6.60
2022-10-28T18:23:05.156Z,5.78
2022-10-28T18:26:00.133Z,6.57
2022-10-28T18:31:36.225Z,7.60
2022-10-28T18:34:25.429Z,7.53
2022-10-28T18:37:13.112Z,7.80
2022-10-28T18:40:00.933Z,8.30
2022-10-28T18:42:49.090Z,6.38
2022-10-28T18:45:38.091Z,8.23
2022-10-28T18:48:28.489Z,7.75
2022-10-28T18:51:18.072Z,7.55
2022-10-28T18:54:06.197Z,7.30
2022-10-28T18:56:57.432Z,7.35
2022-10-28T19:00:16.966Z,6.53
2022-10-28T19:05:42.559Z,7.47
2022-10-28T19:08:31.341Z,7.13
2022-10-28T19:11:19.391Z,7.00
2022-10-28T19:14:08.543Z,6.30
2022-10-28T19:16:56.342Z,7.00
2022-10-28T19:19:43.692Z,6.55
2022-10-28T19:22:31.224Z,6.85
2022-10-28T19:25:22.954Z,7.20
2022-10-28T19:28:10.360Z,7.65
2022-10-28T19:31:03.118Z,7.22
2022-10-28T19:33:54.088Z,7.75
2022-10-28T19:36:42.131Z,7.65
2022-10-28T19:39:29.767Z,7.32
2022-10-28T19:42:21.579Z,6.55
2022-10-28T19:45:11.058Z,6.97
2022-10-28T19:48:02.683Z,6.95
2022-10-28T19:50:51.056Z,7.70
2022-10-28T19:53:38.661Z,6.93
2022-10-28T19:56:26.922Z,7.60
2022-10-28T19:59:16.983Z,7.38
2022-10-28T20:02:04.781Z,6.82
2022-10-28T20:04:57.181Z,7.47
2022-10-28T20:07:44.835Z,8.43
2022-10-28T20:10:33.440Z,8.05
2022-10-28T20:13:23.294Z,8.52
2022-10-28T20:16:15.705Z,8.65
2022-10-28T20:19:03.504Z,8.73
2022-10-28T20:21:51.407Z,8.60
2022-10-28T20:24:42.241Z,7.82
2022-10-28T20:27:29.823Z,8.93
2022-10-28T20:30:17.910Z,9.00
2022-10-28T20:33:08.471Z,8.90
2022-10-28T20:35:56.869Z,8.60
2022-10-28T20:38:44.353Z,10.23
2022-10-28T20:41:34.706Z,10.35
2022-10-28T20:44:22.500Z,9.90
2022-10-28T20:47:10.036Z,10.68
2022-10-28T20:49:59.321Z,10.35
2022-10-28T20:52:47.107Z,9.80
2022-10-28T20:55:34.708Z,10.25
2022-10-28T20:58:28.787Z,10.35
2022-10-28T21:01:19.365Z,10.10
2022-10-28T21:04:11.918Z,9.35
2022-10-28T21:07:00.892Z,9.50
2022-10-28T21:09:49.624Z,9.25
2022-10-28T21:12:37.498Z,9.77
2022-10-28T21:15:25.098Z,9.15
2022-10-28T21:18:13.068Z,8.73
2022-10-28T21:21:01.428Z,8.82
2022-10-28T21:23:50.336Z,9.40
2022-10-28T21:26:38.151Z,9.25
2022-10-28T21:29:25.736Z,8.55
2022-10-28T21:32:13.216Z,8.80
2022-10-28T21:35:01.120Z,9.35
2022-10-28T21:37:48.823Z,9.20
2022-10-28T21:40:37.683Z,8.52
2022-10-28T21:43:29.926Z,8.93
2022-10-28T21:46:17.868Z,8.57
2022-10-28T21:49:05.592Z,8.70
2022-10-28T21:51:53.119Z,8.30
2022-10-28T21:54:40.654Z,8.57
2022-10-28T21:57:35.470Z,8.57
2022-10-28T22:00:23.392Z,10.18
2022-10-28T22:03:11.947Z,9.30
2022-10-28T22:05:59.370Z,8.88
2022-10-28T22:08:47.009Z,8.63
2022-10-28T22:11:34.528Z,8.73
2022-10-28T22:14:23.314Z,7.93
2022-10-28T22:17:11.026Z,8.13
2022-10-28T22:19:58.637Z,8.23
2022-10-28T22:22:46.185Z,7.95
2022-10-28T22:25:33.680Z,7.95
2022-10-28T22:28:21.264Z,7.93
2022-10-28T22:31:13.315Z,8.00
2022-10-28T22:34:01.569Z,7.88
2022-10-28T22:36:49.996Z,8.68
2022-10-28T22:39:37.588Z,8.80
2022-10-28T22:42:27.566Z,8.48
2022-10-28T22:45:15.615Z,8.55
2022-10-28T22:48:04.956Z,8.60
2022-10-28T22:50:52.778Z,8.98
2022-10-28T22:53:41.548Z,8.40
2022-10-28T22:56:29.140Z,8.18
2022-10-28T22:59:16.670Z,8.30
2022-10-28T23:02:04.343Z,8.70
2022-10-28T23:04:53.657Z,7.97
2022-10-28T23:07:41.253Z,8.10
2022-10-28T23:10:30.120Z,8.23
2022-10-28T23:13:17.404Z,8.13
2022-10-28T23:16:06.352Z,7.85
2022-10-28T23:18:56.123Z,7.55
2022-10-28T23:21:44.990Z,8.27
2022-10-28T23:24:32.851Z,7.88
2022-10-28T23:27:20.090Z,7.63
2022-10-28T23:30:10.350Z,7.63
2022-10-28T23:32:59.212Z,7.18
2022-10-28T23:35:54.165Z,7.97
2022-10-28T23:41:31.161Z,7.70
2022-10-28T23:44:18.817Z,7.63
2022-10-28T23:47:06.158Z,8.18
2022-10-28T23:49:54.102Z,8.55
2022-10-28T23:52:41.688Z,8.32
2022-10-28T23:55:30.663Z,7.65
2022-10-28T23:58:20.817Z,7.78
